createdAt,value
2023-06-29T00:00:17.207Z,2.67
2023-06-29T00:02:45.556Z,2.20
2023-06-29T00:05:13.937Z,2.10
2023-06-29T00:07:42.892Z,2.30
2023-06-29T00:10:12.260Z,2.07
2023-06-29T00:12:41.677Z,2.37
2023-06-29T00:15:15.416Z,2.33
2023-06-29T00:17:45.606Z,2.20
2023-06-29T00:20:14.227Z,2.23
2023-06-29T00:22:49.165Z,2.37
2023-06-29T00:25:18.956Z,2.63
2023-06-29T00:27:47.318Z,2.00
2023-06-29T00:30:17.294Z,2.10
2023-06-29T00:32:45.726Z,2.70
2023-06-29T00:35:15.418Z,2.40
2023-06-29T00:37:44.309Z,2.50
2023-06-29T00:40:14.305Z,2.37
2023-06-29T00:42:43.870Z,2.30
2023-06-29T00:45:12.879Z,2.20
2023-06-29T00:47:42.725Z,2.13
2023-06-29T00:50:12.226Z,2.67
2023-06-29T00:52:40.785Z,2.27
2023-06-29T00:55:10.373Z,2.30
2023-06-29T00:57:39.424Z,1.73
2023-06-29T01:00:12.046Z,2.40
2023-06-29T01:02:42.723Z,2.23
2023-06-29T01:05:12.736Z,2.50
2023-06-29T01:07:48.575Z,2.57
2023-06-29T01:10:20.949Z,2.23
2023-06-29T01:12:51.130Z,2.17
2023-06-29T01:15:19.596Z,2.17
2023-06-29T01:17:52.550Z,2.23
2023-06-29T01:20:22.146Z,2.40
2023-06-29T01:23:00.248Z,2.40
2023-06-29T01:25:31.035Z,2.00
2023-06-29T01:27:59.774Z,2.03
2023-06-29T01:30:29.693Z,2.30
2023-06-29T01:32:58.062Z,2.57
2023-06-29T01:35:26.749Z,2.40
2023-06-29T01:38:00.934Z,2.53
2023-06-29T01:40:32.244Z,2.53
2023-06-29T01:43:01.112Z,2.40
2023-06-29T01:45:31.099Z,3.33
2023-06-29T01:48:00.400Z,2.90
2023-06-29T01:50:29.781Z,2.93
2023-06-29T01:52:58.103Z,3.07
2023-06-29T01:55:26.873Z,2.80
2023-06-29T01:57:56.618Z,2.80
2023-06-29T02:00:25.520Z,2.70
2023-06-29T02:02:53.961Z,2.47
2023-06-29T02:05:22.712Z,3.13
2023-06-29T02:07:51.220Z,2.77
2023-06-29T02:10:19.800Z,2.53
2023-06-29T02:12:48.080Z,3.40
2023-06-29T02:15:17.870Z,2.53
2023-06-29T02:17:46.307Z,2.30
2023-06-29T02:20:14.697Z,3.03
2023-06-29T02:22:43.085Z,2.77
2023-06-29T02:25:16.487Z,2.60
2023-06-29T02:27:44.922Z,2.80
2023-06-29T02:30:14.490Z,2.93
2023-06-29T02:32:44.260Z,2.70
2023-06-29T02:35:12.573Z,3.10
2023-06-29T02:37:40.896Z,2.80
2023-06-29T02:40:10.735Z,2.60
2023-06-29T02:42:39.064Z,2.50
2023-06-29T02:45:10.186Z,2.10
2023-06-29T02:47:40.687Z,2.90
2023-06-29T02:50:11.638Z,2.60
2023-06-29T02:52:39.926Z,2.80
2023-06-29T02:55:09.312Z,2.77
2023-06-29T02:57:37.641Z,2.73
2023-06-29T03:00:09.217Z,2.90
2023-06-29T03:02:37.676Z,2.63
2023-06-29T03:05:06.995Z,2.80
2023-06-29T03:07:36.805Z,2.67
2023-06-29T03:10:06.078Z,3.00
2023-06-29T03:12:34.370Z,2.53
2023-06-29T03:15:02.797Z,2.80
2023-06-29T03:17:31.199Z,2.77
2023-06-29T03:19:59.517Z,2.60
2023-06-29T03:22:27.954Z,2.60
2023-06-29T03:24:57.656Z,2.70
2023-06-29T03:27:26.008Z,2.70
2023-06-29T03:29:54.902Z,2.43
2023-06-29T03:32:23.319Z,2.53
2023-06-29T03:34:51.630Z,2.50
2023-06-29T03:37:20.188Z,3.20
2023-06-29T03:39:48.949Z,2.70
2023-06-29T03:42:19.690Z,2.87
2023-06-29T03:44:47.983Z,2.63
2023-06-29T03:47:16.348Z,3.20
2023-06-29T03:49:44.652Z,2.80
2023-06-29T03:52:13.111Z,3.17
2023-06-29T03:54:41.522Z,2.93
2023-06-29T03:57:10.102Z,2.70
2023-06-29T03:59:40.206Z,2.90
2023-06-29T04:02:10.497Z,2.90
2023-06-29T04:04:43.611Z,3.00
2023-06-29T04:07:11.975Z,2.97
2023-06-29T04:09:40.321Z,2.83
2023-06-29T04:12:10.347Z,2.90
2023-06-29T04:14:40.065Z,3.10
2023-06-29T04:17:08.451Z,3.00
2023-06-29T04:19:36.787Z,3.10
2023-06-29T04:22:08.543Z,2.97
2023-06-29T04:24:39.510Z,3.60
2023-06-29T04:27:08.034Z,2.97
2023-06-29T04:29:36.394Z,3.23
2023-06-29T04:32:06.582Z,3.13
2023-06-29T04:34:34.966Z,3.10
2023-06-29T04:37:03.949Z,3.07
2023-06-29T04:39:32.532Z,2.83
2023-06-29T04:42:03.479Z,3.57
2023-06-29T04:44:33.455Z,3.43
2023-06-29T04:47:02.827Z,3.13
2023-06-29T04:49:37.957Z,3.03
2023-06-29T04:52:11.305Z,3.77
2023-06-29T04:54:42.598Z,3.20
2023-06-29T04:57:13.339Z,3.57
2023-06-29T04:59:41.701Z,3.50
2023-06-29T05:02:09.997Z,3.40
2023-06-29T05:04:39.903Z,3.03
2023-06-29T05:07:08.368Z,4.03
2023-06-29T05:09:37.246Z,3.40
2023-06-29T05:12:06.688Z,3.40
2023-06-29T05:14:34.986Z,3.53
2023-06-29T05:17:03.552Z,3.47
2023-06-29T05:19:33.160Z,3.43
2023-06-29T05:22:02.869Z,3.60
2023-06-29T05:24:31.226Z,3.83
2023-06-29T05:26:59.619Z,3.80
2023-06-29T05:29:28.017Z,3.40
2023-06-29T05:31:56.490Z,3.23
2023-06-29T05:34:24.991Z,3.67
2023-06-29T05:36:54.207Z,3.27
2023-06-29T05:39:23.897Z,3.23
2023-06-29T05:41:52.266Z,2.90
2023-06-29T05:44:20.623Z,3.60
2023-06-29T05:46:48.955Z,3.70
2023-06-29T05:49:17.361Z,3.60
2023-06-29T05:51:45.690Z,3.70
2023-06-29T05:54:14.019Z,3.50
2023-06-29T05:56:43.714Z,3.33
2023-06-29T05:59:12.038Z,3.53
2023-06-29T06:01:40.528Z,3.73
2023-06-29T06:04:08.977Z,4.20
2023-06-29T06:06:40.376Z,4.00
2023-06-29T06:09:08.770Z,3.57
2023-06-29T06:11:36.948Z,3.50
2023-06-29T06:14:06.620Z,3.67
2023-06-29T06:16:35.080Z,3.50
2023-06-29T06:19:04.014Z,3.60
2023-06-29T06:21:32.339Z,3.93
2023-06-29T06:24:00.686Z,3.23
2023-06-29T06:26:29.620Z,3.37
2023-06-29T06:28:57.978Z,3.53
2023-06-29T06:31:34.229Z,3.40
2023-06-29T06:34:03.886Z,3.73
2023-06-29T06:36:33.600Z,3.50
2023-06-29T06:39:04.913Z,3.40
2023-06-29T06:41:33.239Z,3.53
2023-06-29T06:44:01.669Z,3.77
2023-06-29T06:46:31.398Z,3.70
2023-06-29T06:48:59.764Z,3.23
2023-06-29T06:51:29.120Z,3.10
2023-06-29T06:53:57.482Z,3.50
2023-06-29T06:56:25.779Z,3.20
2023-06-29T06:58:54.165Z,2.63
2023-06-29T07:01:25.903Z,3.23
2023-06-29T07:03:55.716Z,3.33
2023-06-29T07:06:24.046Z,3.43
2023-06-29T07:08:52.416Z,3.30
2023-06-29T07:11:20.786Z,3.17
2023-06-29T07:13:49.102Z,3.03
2023-06-29T07:16:17.448Z,2.73
2023-06-29T07:21:36.962Z,2.83
2023-06-29T07:24:08.069Z,2.30
2023-06-29T07:26:36.976Z,3.07
2023-06-29T07:29:06.487Z,2.93
2023-06-29T07:31:35.360Z,3.33
2023-06-29T07:34:05.106Z,3.20
2023-06-29T07:36:35.433Z,3.10
2023-06-29T07:39:04.047Z,2.80
2023-06-29T07:41:32.846Z,3.10
2023-06-29T07:44:02.378Z,2.90
2023-06-29T07:46:32.989Z,3.20
2023-06-29T07:49:01.494Z,2.67
2023-06-29T07:51:33.633Z,2.87
2023-06-29T07:54:03.495Z,2.37
2023-06-29T07:59:03.418Z,2.87
2023-06-29T08:01:36.440Z,2.60
2023-06-29T08:04:05.484Z,2.63
2023-06-29T08:09:14.634Z,2.67
2023-06-29T08:11:43.028Z,2.30
2023-06-29T08:14:11.339Z,2.43
2023-06-29T08:16:39.806Z,2.63
2023-06-29T08:19:08.212Z,2.60
2023-06-29T08:21:37.923Z,2.53
2023-06-29T08:24:07.520Z,2.20
2023-06-29T08:26:35.983Z,2.83
2023-06-29T08:29:04.370Z,2.40
2023-06-29T08:31:32.764Z,2.50
2023-06-29T08:34:01.222Z,2.40
2023-06-29T08:36:33.223Z,2.30
2023-06-29T08:39:04.077Z,2.15
2023-06-29T08:41:32.474Z,2.00
2023-06-29T08:44:02.917Z,1.90
2023-06-29T08:46:32.694Z,1.85
2023-06-29T08:49:02.693Z,2.13
2023-06-29T08:51:33.895Z,1.85
2023-06-29T08:54:04.678Z,1.98
2023-06-29T08:56:33.377Z,1.95
2023-06-29T08:59:01.888Z,1.83
2023-06-29T09:01:30.884Z,1.77
2023-06-29T09:03:59.654Z,2.40
2023-06-29T09:06:30.059Z,1.83
2023-06-29T09:08:58.792Z,1.75
2023-06-29T09:11:28.573Z,1.90
2023-06-29T09:13:56.998Z,2.05
2023-06-29T09:16:30.963Z,1.95
2023-06-29T09:19:00.439Z,1.80
2023-06-29T09:21:29.874Z,1.73
2023-06-29T09:24:00.195Z,2.05
2023-06-29T09:26:31.071Z,1.58
2023-06-29T09:29:01.209Z,1.92
2023-06-29T09:31:34.169Z,1.92
2023-06-29T09:34:19.354Z,2.17
2023-06-29T09:36:48.446Z,1.80
2023-06-29T09:39:17.211Z,2.10
2023-06-29T09:41:52.018Z,1.92
2023-06-29T09:44:21.826Z,2.10
2023-06-29T09:49:22.301Z,1.90
2023-06-29T09:52:03.797Z,1.80
2023-06-29T09:54:36.624Z,2.08
2023-06-29T09:57:07.354Z,1.98
2023-06-29T09:59:36.961Z,1.98
2023-06-29T10:02:08.524Z,2.00
2023-06-29T10:04:37.054Z,1.83
2023-06-29T10:07:09.744Z,2.13
2023-06-29T10:09:40.123Z,1.70
2023-06-29T10:12:12.983Z,1.70
2023-06-29T10:14:44.363Z,1.60
2023-06-29T10:17:20.720Z,1.75
2023-06-29T10:19:50.563Z,2.03
2023-06-29T10:22:20.296Z,2.03
2023-06-29T10:24:53.673Z,2.03
2023-06-29T10:27:26.498Z,1.90
2023-06-29T10:29:55.262Z,1.90
2023-06-29T10:32:34.270Z,2.08
2023-06-29T10:35:05.957Z,1.80
2023-06-29T10:37:36.029Z,1.90
2023-06-29T10:40:11.165Z,1.67
2023-06-29T10:42:55.387Z,2.10
2023-06-29T10:45:37.048Z,1.70
2023-06-29T10:48:08.378Z,1.90
2023-06-29T10:50:45.803Z,1.90
2023-06-29T10:53:16.166Z,2.05
2023-06-29T10:55:47.581Z,1.90
2023-06-29T10:58:23.508Z,1.80
2023-06-29T11:00:54.156Z,1.75
2023-06-29T11:03:24.698Z,2.10
2023-06-29T11:05:54.791Z,2.20
2023-06-29T11:08:24.102Z,1.80
2023-06-29T11:10:53.371Z,2.03
2023-06-29T11:13:23.969Z,2.13
2023-06-29T11:15:57.485Z,1.90
2023-06-29T11:18:26.091Z,1.85
2023-06-29T11:20:54.412Z,2.13
2023-06-29T11:23:22.744Z,1.77
2023-06-29T11:25:51.046Z,1.77
2023-06-29T11:28:19.421Z,2.00
2023-06-29T11:30:52.720Z,1.77
2023-06-29T11:33:33.631Z,1.95
2023-06-29T11:36:03.429Z,1.30
2023-06-29T11:38:32.129Z,1.88
2023-06-29T11:41:07.092Z,1.98
2023-06-29T11:43:35.683Z,1.80
2023-06-29T11:46:05.615Z,1.90
2023-06-29T11:48:33.975Z,1.75
2023-06-29T11:51:03.110Z,1.95
2023-06-29T11:53:32.143Z,1.90
2023-06-29T11:56:00.475Z,1.83
2023-06-29T11:58:35.944Z,1.60
2023-06-29T12:01:05.757Z,1.95
2023-06-29T12:03:34.876Z,1.60
2023-06-29T12:06:03.418Z,1.73
2023-06-29T12:08:40.347Z,1.90
2023-06-29T12:11:16.859Z,2.15
2023-06-29T12:13:48.933Z,1.70
2023-06-29T12:18:52.071Z,1.70
2023-06-29T12:21:22.038Z,2.33
2023-06-29T12:23:51.522Z,1.92
2023-06-29T12:26:20.428Z,1.60
2023-06-29T12:28:48.746Z,1.77
2023-06-29T12:31:19.822Z,1.98
2023-06-29T12:33:49.540Z,1.83
2023-06-29T12:36:17.848Z,1.60
2023-06-29T12:38:46.195Z,2.00
2023-06-29T12:41:14.524Z,1.90
2023-06-29T12:43:43.076Z,1.75
2023-06-29T12:46:13.367Z,1.73
2023-06-29T12:48:41.820Z,1.92
2023-06-29T12:51:11.472Z,1.70
2023-06-29T12:53:42.708Z,1.70
2023-06-29T12:56:11.074Z,1.65
2023-06-29T12:58:39.421Z,1.90
2023-06-29T13:01:07.833Z,1.60
2023-06-29T13:03:36.410Z,1.85
2023-06-29T13:06:05.132Z,1.85
2023-06-29T13:08:34.803Z,1.65
2023-06-29T13:11:03.398Z,1.73
2023-06-29T13:13:32.169Z,1.98
2023-06-29T13:16:00.496Z,2.25
2023-06-29T13:18:28.958Z,1.80
2023-06-29T13:20:57.442Z,2.00
2023-06-29T13:23:25.837Z,2.20
2023-06-29T13:25:55.551Z,1.63
2023-06-29T13:28:23.917Z,1.75
2023-06-29T13:30:52.294Z,2.15
2023-06-29T13:33:21.989Z,1.90
2023-06-29T13:35:53.308Z,1.98
2023-06-29T13:38:21.704Z,2.20
2023-06-29T13:40:50.151Z,1.80
2023-06-29T13:43:21.042Z,1.52
2023-06-29T13:45:50.411Z,1.88
2023-06-29T13:48:20.698Z,1.80
2023-06-29T13:50:49.453Z,1.60
2023-06-29T13:53:17.852Z,2.03
2023-06-29T13:55:47.351Z,1.67
2023-06-29T13:58:16.061Z,1.95
2023-06-29T14:00:45.828Z,2.00
2023-06-29T14:03:14.239Z,1.80
2023-06-29T14:05:42.976Z,2.13
2023-06-29T14:08:12.487Z,2.20
2023-06-29T14:10:44.229Z,1.90
2023-06-29T14:13:12.501Z,1.83
2023-06-29T14:15:40.844Z,1.58
2023-06-29T14:18:10.608Z,2.22
2023-06-29T14:20:38.936Z,1.75
2023-06-29T14:23:08.320Z,1.70
2023-06-29T14:25:36.641Z,1.70
2023-06-29T14:28:05.297Z,1.77
2023-06-29T14:30:33.621Z,1.80
2023-06-29T14:33:04.126Z,1.70
2023-06-29T14:35:35.764Z,2.00
2023-06-29T14:38:13.185Z,1.77
2023-06-29T14:40:43.243Z,1.73
2023-06-29T14:43:12.020Z,2.10
2023-06-29T14:45:40.767Z,1.80
2023-06-29T14:48:09.404Z,1.90
2023-06-29T14:50:39.187Z,1.63
2023-06-29T14:53:07.676Z,2.00
2023-06-29T14:55:36.116Z,1.90
2023-06-29T14:58:05.701Z,1.42
2023-06-29T15:00:36.443Z,2.05
2023-06-29T15:03:04.938Z,1.73
2023-06-29T15:05:33.529Z,2.05
2023-06-29T15:08:03.200Z,2.10
2023-06-29T15:10:34.235Z,1.83
2023-06-29T15:13:02.536Z,2.17
2023-06-29T15:15:31.027Z,2.20
2023-06-29T15:17:59.447Z,1.80
2023-06-29T15:20:27.787Z,1.98
2023-06-29T15:22:56.082Z,1.90
2023-06-29T15:25:25.800Z,1.92
2023-06-29T15:27:54.125Z,1.90
2023-06-29T15:30:22.516Z,2.20
2023-06-29T15:32:50.878Z,1.85
2023-06-29T15:35:19.272Z,2.00
2023-06-29T15:37:47.711Z,2.00
2023-06-29T15:40:17.037Z,2.28
2023-06-29T15:42:47.066Z,1.77
2023-06-29T15:45:15.396Z,1.80
2023-06-29T15:47:43.896Z,2.03
2023-06-29T15:50:12.486Z,2.20
2023-06-29T15:52:43.084Z,2.35
2023-06-29T15:55:23.102Z,1.70
2023-06-29T15:57:52.793Z,1.70
2023-06-29T16:00:21.852Z,2.20
2023-06-29T16:02:50.270Z,1.80
2023-06-29T16:05:18.966Z,1.77
2023-06-29T16:07:49.927Z,1.85
2023-06-29T16:10:18.229Z,2.13
2023-06-29T16:12:46.592Z,1.95
2023-06-29T16:15:22.305Z,2.22
2023-06-29T16:17:50.809Z,1.98
2023-06-29T16:20:19.233Z,2.05
2023-06-29T16:22:47.632Z,2.20
2023-06-29T16:25:15.985Z,2.00
2023-06-29T16:27:44.340Z,2.00
2023-06-29T16:30:13.532Z,1.92
2023-06-29T16:32:43.268Z,2.00
2023-06-29T16:35:20.359Z,1.88
2023-06-29T16:37:48.783Z,1.83
2023-06-29T16:40:17.104Z,1.70
2023-06-29T16:42:45.450Z,2.10
2023-06-29T16:45:14.831Z,1.85
2023-06-29T16:47:44.597Z,1.70
2023-06-29T16:50:13.114Z,1.88
2023-06-29T16:52:41.428Z,2.20
2023-06-29T16:55:13.404Z,2.13
2023-06-29T16:57:41.976Z,1.92
2023-06-29T17:00:11.692Z,2.42
2023-06-29T17:02:40.131Z,2.58
2023-06-29T17:05:16.307Z,1.95
2023-06-29T17:07:44.711Z,1.63
2023-06-29T17:10:13.071Z,1.88
2023-06-29T17:12:41.507Z,1.80
2023-06-29T17:15:11.981Z,2.22
2023-06-29T17:17:40.417Z,2.15
2023-06-29T17:20:11.723Z,1.65
2023-06-29T17:22:40.207Z,2.10
2023-06-29T17:25:15.871Z,1.80
2023-06-29T17:27:44.198Z,2.10
2023-06-29T17:30:14.450Z,2.20
2023-06-29T17:32:42.762Z,1.88
2023-06-29T17:35:15.088Z,1.73
2023-06-29T17:37:43.508Z,1.83
2023-06-29T17:40:12.297Z,1.67
2023-06-29T17:42:40.618Z,2.20
2023-06-29T17:45:19.950Z,1.90
2023-06-29T17:47:48.360Z,2.10
2023-06-29T17:50:18.132Z,1.88
2023-06-29T17:52:48.792Z,1.95
2023-06-29T17:55:20.238Z,2.00
2023-06-29T17:57:48.543Z,3.22
2023-06-29T18:00:18.596Z,2.58
2023-06-29T18:02:47.125Z,1.92
2023-06-29T18:05:28.334Z,2.08
2023-06-29T18:07:56.970Z,2.22
2023-06-29T18:10:25.302Z,2.03
2023-06-29T18:12:53.741Z,1.95
2023-06-29T18:15:22.135Z,2.20
2023-06-29T18:17:50.557Z,1.80
2023-06-29T18:20:20.294Z,1.80
2023-06-29T18:22:48.610Z,1.63
2023-06-29T18:25:17.298Z,1.63
2023-06-29T18:27:45.695Z,2.00
2023-06-29T18:30:15.319Z,1.55
2023-06-29T18:32:43.704Z,2.13
2023-06-29T18:35:15.008Z,1.58
2023-06-29T18:37:46.359Z,1.80
2023-06-29T18:40:15.665Z,2.00
2023-06-29T18:42:44.142Z,2.10
2023-06-29T18:45:15.484Z,1.70
2023-06-29T18:47:43.898Z,1.70
2023-06-29T18:50:13.040Z,2.10
2023-06-29T18:52:41.442Z,1.93
2023-06-29T18:55:11.607Z,1.80
2023-06-29T18:57:40.060Z,2.13
2023-06-29T19:00:10.059Z,1.77
2023-06-29T19:02:43.157Z,2.00
2023-06-29T19:05:17.639Z,1.87
2023-06-29T19:07:46.054Z,1.93
2023-06-29T19:10:15.868Z,1.80
2023-06-29T19:12:44.226Z,1.97
2023-06-29T19:15:15.737Z,2.00
2023-06-29T19:17:44.206Z,1.77
2023-06-29T19:20:13.732Z,1.70
2023-06-29T19:22:42.044Z,1.90
2023-06-29T19:25:12.537Z,1.90
2023-06-29T19:27:42.874Z,2.30
2023-06-29T19:30:17.087Z,1.90
2023-06-29T19:32:45.455Z,2.40
2023-06-29T19:35:13.835Z,2.00
2023-06-29T19:37:43.256Z,2.03
2023-06-29T19:40:12.733Z,2.00
2023-06-29T19:42:42.881Z,2.07
2023-06-29T19:45:13.017Z,1.90
2023-06-29T19:47:41.375Z,1.93
2023-06-29T19:50:13.494Z,1.70
2023-06-29T19:52:41.980Z,1.87
2023-06-29T19:55:11.198Z,2.10
2023-06-29T19:57:39.835Z,1.87
2023-06-29T20:00:18.737Z,1.90
2023-06-29T20:02:47.165Z,2.37
2023-06-29T20:05:15.889Z,2.00
2023-06-29T20:07:49.001Z,1.97
2023-06-29T20:10:17.484Z,1.80
2023-06-29T20:12:46.446Z,2.03
2023-06-29T20:15:19.131Z,1.90
2023-06-29T20:17:47.526Z,1.90
2023-06-29T20:20:16.027Z,2.30
2023-06-29T20:22:44.414Z,2.37
2023-06-29T20:25:12.745Z,2.03
2023-06-29T20:27:41.096Z,2.07
2023-06-29T20:30:13.092Z,2.10
2023-06-29T20:32:42.898Z,2.40
2023-06-29T20:35:11.445Z,1.73
2023-06-29T20:37:39.802Z,1.67
2023-06-29T20:40:15.557Z,1.70
2023-06-29T20:42:43.893Z,1.90
2023-06-29T20:45:13.585Z,2.13
2023-06-29T20:47:43.439Z,1.80
2023-06-29T20:50:12.559Z,1.97
2023-06-29T20:52:41.829Z,2.00
2023-06-29T20:55:11.039Z,2.07
2023-06-29T20:57:39.428Z,2.07
2023-06-29T21:00:12.785Z,2.30
2023-06-29T21:02:43.053Z,2.50
2023-06-29T21:05:11.659Z,2.37
2023-06-29T21:07:40.044Z,2.23
2023-06-29T21:10:09.890Z,2.83
2023-06-29T21:12:39.245Z,2.37
2023-06-29T21:15:09.386Z,2.20
2023-06-29T21:17:38.339Z,2.20
2023-06-29T21:20:10.298Z,1.87
2023-06-29T21:22:40.381Z,1.90
2023-06-29T21:25:11.053Z,2.27
2023-06-29T21:27:40.531Z,2.20
2023-06-29T21:30:13.855Z,2.10
2023-06-29T21:32:42.750Z,2.27
2023-06-29T21:35:14.350Z,2.40
2023-06-29T21:37:43.260Z,2.40
2023-06-29T21:40:13.552Z,2.20
2023-06-29T21:42:41.869Z,2.23
2023-06-29T21:45:11.201Z,1.80
2023-06-29T21:47:39.547Z,2.23
2023-06-29T21:50:09.881Z,2.13
2023-06-29T21:52:39.577Z,2.23
2023-06-29T21:55:09.123Z,2.00
2023-06-29T21:57:38.204Z,2.17
2023-06-29T22:00:10.737Z,2.10
2023-06-29T22:02:39.112Z,2.50
2023-06-29T22:05:14.071Z,2.27
2023-06-29T22:07:44.015Z,2.07
2023-06-29T22:10:12.882Z,2.10
2023-06-29T22:12:43.482Z,1.97
2023-06-29T22:15:20.046Z,2.10
2023-06-29T22:17:51.891Z,2.00
2023-06-29T22:20:23.872Z,2.00
2023-06-29T22:22:53.827Z,2.20
2023-06-29T22:25:25.598Z,2.07
2023-06-29T22:27:55.381Z,2.40
2023-06-29T22:30:23.723Z,1.90
2023-06-29T22:32:53.285Z,2.00
2023-06-29T22:35:24.987Z,2.20
2023-06-29T22:37:54.754Z,2.10
2023-06-29T22:40:23.175Z,2.37
2023-06-29T22:42:51.536Z,2.37
2023-06-29T22:45:20.064Z,2.30
2023-06-29T22:47:48.455Z,2.43
2023-06-29T22:50:17.111Z,2.30
2023-06-29T22:52:46.234Z,2.27
2023-06-29T22:55:15.965Z,2.30
2023-06-29T22:57:44.289Z,2.20
2023-06-29T23:00:14.149Z,2.17
2023-06-29T23:02:42.577Z,1.90
2023-06-29T23:05:13.147Z,2.37
2023-06-29T23:07:44.992Z,2.60
2023-06-29T23:10:16.356Z,2.50
2023-06-29T23:12:46.653Z,1.93
2023-06-29T23:15:21.620Z,2.83
2023-06-29T23:17:49.965Z,2.53
2023-06-29T23:20:18.346Z,2.30
2023-06-29T23:22:46.825Z,2.20
2023-06-29T23:25:16.581Z,2.33
2023-06-29T23:27:45.252Z,2.30
2023-06-29T23:30:16.763Z,2.50
2023-06-29T23:32:50.932Z,2.20
2023-06-29T23:35:21.641Z,2.33
2023-06-29T23:37:50.199Z,2.30
2023-06-29T23:40:20.194Z,2.03
2023-06-29T23:42:48.654Z,2.20
2023-06-29T23:45:17.580Z,2.07
2023-06-29T23:47:46.306Z,2.50
2023-06-29T23:50:14.902Z,2.33
2023-06-29T23:52:43.730Z,2.20
2023-06-29T23:55:13.523Z,2.20
2023-06-29T23:57:43.430Z,2.03
